Time;durP1;ratioP1;P1;durP2;ratioP2;P2;SDS_P1;SDS_P2;PMS_P1;PMS_P2;Temp;Humidity;BMP_temperature;BMP_pressure;BME280_temperature;BME280_humidity;BME280_pressure;Samples;Min_cycle;Max_cycle;Signal;HPM_P1;HPM_P2
2022/11/05 00:09:28;;;;;;;21.73;12.23;;;7.80;99.90;;;-144.05;79.80;125687.94;5025262;28;20098;-82
2022/11/05 00:17:08;;;;;;;25.63;13.98;;;7.10;99.90;;;-144.05;80.72;125687.94;5031245;28;20061;-85
2022/11/05 00:19:33;;;;;;;29.55;14.45;;;7.00;99.90;;;-144.05;80.80;125687.94;5046763;28;20022;-83
2022/11/05 00:27:33;;;;;;;28.15;14.45;;;6.90;99.90;;;-144.05;81.20;125687.94;5020570;28;20217;-83
2022/11/05 00:29:58;;;;;;;23.33;13.38;;;6.90;99.90;;;-144.05;81.16;125687.94;5020020;28;20462;-83
2022/11/05 00:32:24;;;;;;;25.83;13.60;;;6.80;99.90;;;-144.05;81.09;125687.94;5017425;28;20033;-82
2022/11/05 00:34:50;;;;;;;39.28;19.02;;;6.80;99.90;;;-144.05;82.29;125687.94;5017475;28;20289;-82
2022/11/05 00:37:16;;;;;;;28.48;16.33;;;6.90;99.90;;;-144.05;81.76;125687.94;5032080;28;20089;-82
2022/11/05 00:39:42;;;;;;;31.80;17.13;;;7.00;99.90;;;-144.05;82.02;125687.94;5017038;28;20128;-80
2022/11/05 00:45:01;;;;;;;27.20;15.40;;;7.00;99.90;;;-144.05;81.61;125687.94;5017808;28;20409;-82
2022/11/05 00:50:15;;;;;;;25.65;14.63;;;7.00;99.90;;;-144.05;81.65;125687.94;5016508;28;20037;-82
2022/11/05 00:53:00;;;;;;;24.35;13.20;;;6.90;99.90;;;-144.05;81.52;125687.94;5014836;28;20401;-81
2022/11/05 00:55:45;;;;;;;26.73;14.70;;;6.90;99.90;;;-144.05;81.80;125687.94;5016052;28;20033;-81
2022/11/05 00:58:18;;;;;;;28.00;16.40;;;6.80;99.90;;;-144.05;81.96;125687.94;5022573;28;20022;-83
2022/11/05 01:00:55;;;;;;;29.70;15.15;;;6.80;99.90;;;-144.05;82.31;125687.94;5012008;28;20062;-80
2022/11/05 01:03:29;;;;;;;27.33;16.20;;;6.70;99.90;;;-144.05;82.35;125687.94;5012225;28;20048;-82
2022/11/05 01:06:06;;;;;;;32.93;17.37;;;6.60;99.90;;;-144.05;82.77;125687.94;5012633;28;20572;-82
2022/11/05 01:08:32;;;;;;;29.80;15.02;;;6.70;99.90;;;-144.05;82.40;125687.94;5028956;28;20121;-81
2022/11/05 01:10:58;;;;;;;30.70;17.00;;;6.70;99.90;;;-144.05;82.74;125687.94;5012988;28;20069;-79
2022/11/05 01:13:29;;;;;;;31.30;16.65;;;6.60;99.90;;;-144.05;82.75;125687.94;5014491;28;20139;-81
2022/11/05 01:15:56;;;;;;;26.80;15.93;;;6.60;99.90;;;-144.05;82.36;125687.94;5014701;28;20034;-82
2022/11/05 01:18:23;;;;;;;32.33;17.13;;;6.60;99.90;;;-144.05;82.34;125687.94;5013308;28;20026;-82
2022/11/05 01:20:50;;;;;;;31.25;15.80;;;6.60;99.90;;;-144.05;82.49;125687.94;5014584;28;20034;-82
2022/11/05 01:23:16;;;;;;;27.67;13.57;;;6.50;99.90;;;-144.05;82.53;125687.94;5012741;28;20080;-80
2022/11/05 01:25:42;;;;;;;31.67;17.08;;;6.50;99.90;;;-144.05;82.78;125687.94;5014625;28;20172;-81
2022/11/05 01:28:09;;;;;;;29.00;16.17;;;6.50;99.90;;;-144.05;83.11;125687.94;5014934;28;20126;-82
2022/11/05 01:30:36;;;;;;;36.75;15.75;;;6.50;99.90;;;-144.05;83.16;125687.94;5017486;28;20099;-82
2022/11/05 01:33:02;;;;;;;31.05;15.25;;;6.50;99.90;;;-144.05;82.92;125687.94;5017649;28;20034;-82
2022/11/05 01:35:28;;;;;;;34.05;15.93;;;6.50;99.90;;;-144.05;82.94;125687.94;5016728;28;20468;-82
2022/11/05 01:37:54;;;;;;;33.55;15.73;;;6.40;99.90;;;-144.05;83.08;125687.94;5033230;28;20109;-81
2022/11/05 01:40:23;;;;;;;31.75;16.40;;;6.50;99.90;;;-144.05;83.42;125687.94;5046800;28;20053;-81
2022/11/05 01:42:49;;;;;;;36.78;17.92;;;6.50;99.90;;;-144.05;83.41;125687.94;5036787;28;20030;-81
2022/11/05 01:45:27;;;;;;;28.88;16.10;;;6.60;99.90;;;-144.05;83.46;125687.94;5053503;28;20022;-80
2022/11/05 01:48:10;;;;;;;30.25;16.23;;;6.70;99.90;;;-144.05;83.52;125687.94;5029788;28;20041;-82
2022/11/05 01:50:54;;;;;;;26.20;15.35;;;6.70;99.90;;;-144.05;83.54;125687.94;5028595;28;20796;-84
2022/11/05 01:53:38;;;;;;;30.17;14.68;;;6.70;99.90;;;-144.05;83.26;125687.94;5027001;28;20034;-83
2022/11/05 01:56:48;;;;;;;26.92;15.00;;;6.70;99.90;;;-144.05;82.84;125687.94;5025599;28;20026;-82
2022/11/05 01:59:40;;;;;;;37.95;16.67;;;6.60;99.90;;;-144.05;82.74;125687.94;5021126;28;20034;-84
2022/11/05 02:02:07;;;;;;;34.88;17.02;;;6.50;99.90;;;-144.05;82.92;125687.94;5024344;28;20481;-82
2022/11/05 02:04:45;;;;;;;28.90;17.08;;;6.50;99.90;;;-144.05;83.19;125687.94;5025720;28;20108;-82
2022/11/05 02:07:13;;;;;;;36.38;17.67;;;6.50;99.90;;;-144.05;83.76;125687.94;5025413;28;20084;-81
2022/11/05 02:10:10;;;;;;;38.65;17.92;;;6.50;99.90;;;-144.05;83.42;125687.94;5024093;28;20048;-82
2022/11/05 02:12:43;;;;;;;33.80;18.05;;;6.60;99.90;;;-144.05;84.14;125687.94;5028765;28;20072;-82
2022/11/05 02:15:37;;;;;;;35.00;18.05;;;6.60;99.90;;;-144.05;84.26;125687.94;5026282;28;20037;-81
2022/11/05 02:18:51;;;;;;;33.42;17.92;;;6.60;99.90;;;-144.05;83.82;125687.94;5023774;28;20503;-81
2022/11/05 02:21:56;;;;;;;36.05;18.58;;;6.60;99.90;;;-144.05;83.91;125687.94;5024701;28;20080;-83
2022/11/05 02:24:59;;;;;;;35.63;18.75;;;6.60;99.90;;;-144.05;83.19;125687.94;5023314;28;20026;-80
2022/11/05 02:28:24;;;;;;;34.53;17.55;;;6.60;99.90;;;-144.05;83.56;125687.94;5023344;28;20053;-81
2022/11/05 02:31:20;;;;;;;29.33;16.75;;;6.50;99.90;;;-144.05;83.31;125687.94;5021016;28;20034;-82
2022/11/05 02:34:31;;;;;;;28.98;16.25;;;6.50;99.90;;;-144.05;83.67;125687.94;5018469;28;20034;-80
2022/11/05 02:37:14;;;;;;;27.17;15.68;;;6.50;99.90;;;-144.05;83.38;125687.94;5016400;28;20038;-82
2022/11/05 02:39:45;;;;;;;29.25;15.77;;;6.50;99.90;;;-144.05;82.96;125687.94;5017483;28;20026;-82
2022/11/05 02:42:37;;;;;;;34.78;16.42;;;6.40;99.90;;;-144.05;82.67;125687.94;5016941;28;20028;-83
2022/11/05 02:45:41;;;;;;;26.67;14.27;;;6.30;99.90;;;-144.05;82.88;125687.94;5034387;28;20061;-83
2022/11/05 02:48:28;;;;;;;32.63;16.80;;;6.10;99.90;;;-144.05;82.91;125687.94;5017278;28;20064;-83
2022/11/05 02:51:09;;;;;;;38.05;18.00;;;6.10;99.90;;;-144.05;83.73;125687.94;5019125;28;20085;-81
2022/11/05 02:53:49;;;;;;;32.45;16.48;;;6.10;99.90;;;-144.05;83.16;125687.94;5017183;28;20056;-83
2022/11/05 02:56:32;;;;;;;36.28;18.15;;;6.10;99.90;;;-144.05;83.19;125687.94;5017656;28;20034;-82
2022/11/05 02:58:58;;;;;;;34.92;17.63;;;6.10;99.90;;;-144.05;83.51;125687.94;5018987;28;20040;-83
2022/11/05 03:01:24;;;;;;;31.48;16.58;;;6.10;99.90;;;-144.05;83.27;125687.94;5033904;28;20033;-82
2022/11/05 03:04:05;;;;;;;35.83;17.98;;;6.10;99.90;;;-144.05;83.33;125687.94;5018428;28;20124;-81
2022/11/05 03:07:05;;;;;;;36.63;17.27;;;6.10;99.90;;;-144.05;83.54;125687.94;5016963;28;20037;-82
2022/11/05 03:10:17;;;;;;;33.03;16.77;;;6.20;99.90;;;-144.05;83.52;125687.94;5018440;28;20033;-81
2022/11/05 03:13:22;;;;;;;35.92;16.90;;;6.10;99.90;;;-144.05;83.32;125687.94;5040133;23;20029;-79
2022/11/05 03:16:03;;;;;;;34.22;17.65;;;6.10;99.90;;;-144.05;83.56;125687.94;4991921;28;20039;-81
2022/11/05 03:19:09;;;;;;;31.48;16.80;;;6.20;99.90;;;-144.05;83.89;125687.94;4993971;28;20022;-81
2022/11/05 03:22:23;;;;;;;35.53;17.98;;;6.20;99.90;;;-144.05;83.85;125687.94;4986680;28;20038;-80
2022/11/05 03:25:02;;;;;;;33.15;18.45;;;6.30;99.90;;;-144.05;83.63;125687.94;4976370;28;20371;-81
2022/11/05 03:27:40;;;;;;;39.50;19.13;;;6.30;99.90;;;-144.05;83.29;125687.94;4993832;28;20066;-82
2022/11/05 03:30:13;;;;;;;32.78;17.30;;;6.30;99.90;;;-144.05;83.60;125687.94;4976650;28;20129;-82
2022/11/05 03:32:53;;;;;;;30.42;17.85;;;6.20;99.90;;;-144.05;83.57;125687.94;4995826;28;20066;-82
2022/11/05 03:35:33;;;;;;;31.50;17.98;;;6.20;99.90;;;-144.05;83.26;125687.94;4981220;28;20034;-81
2022/11/05 03:38:09;;;;;;;32.65;18.48;;;6.20;99.90;;;-144.05;83.38;125687.94;4979352;28;20113;-80
2022/11/05 03:40:41;;;;;;;37.92;19.27;;;6.10;99.90;;;-144.05;83.81;125687.94;4977672;28;20022;-80
2022/11/05 03:43:08;;;;;;;40.20;20.10;;;6.10;99.90;;;-144.05;84.14;125687.94;4976204;28;20030;-80
2022/11/05 03:45:45;;;;;;;43.13;20.23;;;6.20;99.90;;;-144.05;84.01;125687.94;4976100;28;20076;-80
2022/11/05 03:48:16;;;;;;;36.35;20.10;;;6.20;99.90;;;-144.05;84.05;125687.94;4976112;28;20033;-80
2022/11/05 03:51:03;;;;;;;35.13;20.08;;;6.10;99.90;;;-144.05;83.85;125687.94;4976057;28;20057;-80
2022/11/05 03:53:44;;;;;;;43.92;22.63;;;6.10;99.90;;;-144.05;83.66;125687.94;4988058;28;20034;-82
2022/11/05 03:56:26;;;;;;;40.42;20.10;;;6.10;99.90;;;-144.05;84.47;125687.94;4989432;28;20065;-80
2022/11/05 03:58:56;;;;;;;39.97;20.13;;;6.10;99.90;;;-144.05;84.72;125687.94;4990257;28;20045;-81
2022/11/05 04:01:23;;;;;;;35.25;20.45;;;6.10;99.90;;;-144.05;84.64;125687.94;4994480;28;20026;-83
2022/11/05 04:03:48;;;;;;;34.88;20.33;;;6.10;99.90;;;-144.05;84.31;125687.94;4994137;28;20552;-82
2022/11/05 04:14:30;;;;;;;43.65;20.10;;;6.10;99.90;;;-144.05;83.93;125687.94;4995961;28;20528;-80
2022/11/05 04:17:08;;;;;;;41.95;21.95;;;6.00;99.90;;;-144.05;84.39;125687.94;4976920;28;20120;-84
2022/11/05 04:25:19;;;;;;;38.38;19.27;;;6.00;99.90;;;-144.05;83.64;125687.94;4993435;28;20030;-81
2022/11/05 04:27:46;;;;;;;40.80;20.85;;;5.90;99.90;;;-144.05;83.66;125687.94;4976528;28;20382;-82
2022/11/05 04:30:20;;;;;;;42.80;21.27;;;5.90;99.90;;;-144.05;83.88;125687.94;4976194;28;20023;-83
2022/11/05 04:33:05;;;;;;;40.88;19.38;;;5.90;99.90;;;-144.05;84.13;125687.94;4992926;28;20027;-84
2022/11/05 04:35:45;;;;;;;36.75;19.42;;;5.90;99.90;;;-144.05;84.52;125687.94;4993050;28;20039;-84
2022/11/05 04:38:18;;;;;;;42.60;19.90;;;6.00;99.90;;;-144.05;83.95;125687.94;4996331;28;20462;-82
2022/11/05 04:40:47;;;;;;;41.20;20.85;;;6.00;99.90;;;-144.05;83.74;125687.94;4975819;28;20041;-81
2022/11/05 04:43:16;;;;;;;36.78;20.33;;;6.00;99.90;;;-144.05;83.99;125687.94;4975153;28;20489;-80
2022/11/05 04:45:44;;;;;;;33.85;19.75;;;6.10;99.90;;;-144.05;84.00;125687.94;4975135;28;20092;-79
2022/11/05 04:48:11;;;;;;;37.60;19.63;;;6.10;99.90;;;-144.05;83.88;125687.94;4992555;28;20030;-81
2022/11/05 04:50:38;;;;;;;36.33;18.85;;;6.10;99.90;;;-144.05;83.93;125687.94;4975260;28;20034;-82
2022/11/05 04:53:03;;;;;;;36.30;19.55;;;6.00;99.90;;;-144.05;83.55;125687.94;4992697;28;20030;-80
2022/11/05 04:55:30;;;;;;;36.10;19.85;;;6.00;99.90;;;-144.05;83.71;125687.94;4975122;28;20045;-80
2022/11/05 04:57:56;;;;;;;33.70;19.17;;;5.90;99.90;;;-144.05;83.49;125687.94;4975248;28;20022;-80
2022/11/05 05:00:23;;;;;;;39.58;19.42;;;6.00;99.90;;;-144.05;83.39;125687.94;4975076;28;20022;-80
2022/11/05 05:02:49;;;;;;;37.08;19.45;;;5.90;99.90;;;-144.05;83.59;125687.94;4992116;28;20026;-82
2022/11/05 05:05:15;;;;;;;36.53;20.05;;;5.90;99.90;;;-144.05;84.14;125687.94;4976411;28;20504;-80
2022/11/05 05:08:13;;;;;;;38.97;20.05;;;5.90;99.90;;;-144.05;83.56;125687.94;4995878;28;20057;-80
2022/11/05 05:10:38;;;;;;;39.15;19.90;;;5.90;99.90;;;-144.05;83.71;125687.94;4996487;28;20030;-82
2022/11/05 05:13:04;;;;;;;39.95;21.95;;;5.90;99.90;;;-144.05;83.36;125687.94;4999105;28;20041;-80
2022/11/05 05:15:30;;;;;;;40.75;22.25;;;6.00;99.90;;;-144.05;83.84;125687.94;4975213;28;20026;-82
2022/11/05 05:17:56;;;;;;;42.65;22.25;;;5.90;99.90;;;-144.05;83.35;125687.94;4975260;28;20030;-81
2022/11/05 05:23:06;;;;;;;50.35;25.55;;;5.90;99.90;;;-144.05;83.81;125687.94;4994005;28;20381;-81
2022/11/05 05:25:32;;;;;;;49.78;24.23;;;5.90;99.90;;;-144.05;83.50;125687.94;4978257;28;20066;-79
2022/11/05 05:28:04;;;;;;;51.75;25.42;;;5.90;99.90;;;-144.05;83.38;125687.94;4994434;28;20117;-79
2022/11/05 05:30:30;;;;;;;51.63;26.45;;;5.90;99.90;;;-144.05;83.56;125687.94;4995491;28;20031;-81
2022/11/05 05:32:56;;;;;;;53.83;25.13;;;5.90;99.90;;;-144.05;83.67;125687.94;4979523;28;20106;-79
2022/11/05 05:35:38;;;;;;;58.10;25.98;;;5.90;99.90;;;-144.05;83.66;125687.94;4995992;28;20030;-79
2022/11/05 05:38:04;;;;;;;60.67;26.27;;;5.90;99.90;;;-144.05;83.84;125687.94;4999343;28;20057;-79
2022/11/05 05:40:30;;;;;;;61.63;28.98;;;5.90;99.90;;;-144.05;83.85;125687.94;4989683;28;20022;-83
2022/11/05 05:42:56;;;;;;;57.67;27.25;;;5.90;99.90;;;-144.05;84.18;125687.94;4978659;28;20477;-81
2022/11/05 05:45:21;;;;;;;62.72;29.65;;;5.90;99.90;;;-144.05;83.83;125687.94;4978442;28;20025;-82
2022/11/05 05:47:47;;;;;;;58.47;27.83;;;6.00;99.90;;;-144.05;83.75;125687.94;4995015;28;20474;-80
2022/11/05 05:50:13;;;;;;;54.33;26.10;;;6.00;99.90;;;-144.05;83.29;125687.94;4994354;28;20038;-78
2022/11/05 05:52:39;;;;;;;53.25;26.83;;;6.00;99.90;;;-144.05;83.44;125687.94;4993987;28;20093;-81
2022/11/05 05:55:05;;;;;;;52.60;25.40;;;6.00;99.90;;;-144.05;82.99;125687.94;4998466;28;20022;-80
2022/11/05 05:57:33;;;;;;;53.42;25.33;;;5.90;99.90;;;-144.05;83.04;125687.94;4993903;28;20066;-83
2022/11/05 06:00:00;;;;;;;50.42;24.40;;;5.90;99.90;;;-144.05;82.76;125687.94;4997019;28;20088;-78
2022/11/05 06:02:29;;;;;;;51.38;24.23;;;5.90;99.90;;;-144.05;82.79;125687.94;4997988;28;20077;-81
2022/11/05 06:04:55;;;;;;;47.70;22.70;;;5.80;99.90;;;-144.05;82.46;125687.94;4993870;28;20054;-81
2022/11/05 06:07:21;;;;;;;50.92;23.80;;;5.80;99.90;;;-144.05;82.46;125687.94;4977672;28;20617;-82
2022/11/05 06:09:47;;;;;;;47.55;23.88;;;5.80;99.90;;;-144.05;82.81;125687.94;4994622;28;20105;-81
2022/11/05 06:12:13;;;;;;;48.90;23.65;;;5.70;99.90;;;-144.05;82.97;125687.94;4977280;28;20121;-81
2022/11/05 06:14:39;;;;;;;50.45;24.13;;;5.70;99.90;;;-144.05;82.91;125687.94;4980822;28;20070;-82
2022/11/05 06:17:06;;;;;;;50.70;22.95;;;5.70;99.90;;;-144.05;83.06;125687.94;5002137;28;20034;-80
2022/11/05 06:19:32;;;;;;;52.20;25.13;;;5.70;99.90;;;-144.05;83.29;125687.94;5001651;28;20030;-82
2022/11/05 06:21:58;;;;;;;48.22;24.17;;;5.70;99.90;;;-144.05;83.27;125687.94;4984631;28;20084;-78
2022/11/05 06:24:24;;;;;;;53.90;24.83;;;5.70;99.90;;;-144.05;83.67;125687.94;4983286;28;20049;-81
2022/11/05 06:26:50;;;;;;;45.80;22.77;;;5.80;99.90;;;-144.05;83.17;125687.94;4984149;28;20125;-80
2022/11/05 06:29:16;;;;;;;43.85;22.65;;;5.80;99.90;;;-144.05;82.81;125687.94;5000649;28;20037;-81
2022/11/05 06:31:42;;;;;;;52.75;23.45;;;5.80;99.90;;;-144.05;83.25;125687.94;5003071;28;20058;-81
2022/11/05 06:34:08;;;;;;;49.95;24.67;;;5.80;99.90;;;-144.05;83.35;125687.94;4982983;28;20035;-79
2022/11/05 06:36:34;;;;;;;45.60;22.77;;;5.90;99.90;;;-144.05;83.28;125687.94;4987488;28;20504;-81
2022/11/05 06:39:00;;;;;;;44.33;22.02;;;5.90;99.90;;;-144.05;83.29;125687.94;4986479;28;20501;-80
2022/11/05 06:41:26;;;;;;;44.78;23.17;;;6.00;99.90;;;-144.05;83.42;125687.94;5003500;28;20069;-83
2022/11/05 06:43:51;;;;;;;37.58;21.42;;;6.00;99.90;;;-144.05;82.83;125687.94;5002430;28;20026;-82
2022/11/05 06:46:18;;;;;;;42.33;21.83;;;6.00;99.90;;;-144.05;83.16;125687.94;4988304;28;20034;-82
2022/11/05 06:48:44;;;;;;;40.20;23.20;;;6.10;99.90;;;-144.05;82.94;125687.94;4987196;28;20061;-84
2022/11/05 06:51:10;;;;;;;43.53;22.15;;;6.10;99.90;;;-144.05;82.80;125687.94;5004419;28;20494;-82
2022/11/05 06:53:36;;;;;;;42.20;21.58;;;6.10;99.90;;;-144.05;82.78;125687.94;4984871;28;20159;-81
2022/11/05 06:56:08;;;;;;;41.10;22.33;;;6.20;99.90;;;-144.05;82.67;125687.94;5013185;28;20025;-80
2022/11/05 06:58:35;;;;;;;43.35;22.17;;;6.10;99.90;;;-144.05;83.17;125687.94;5007882;28;20034;-80
2022/11/05 07:01:09;;;;;;;36.42;21.73;;;6.20;99.90;;;-144.05;82.60;125687.94;4995794;28;20441;-80
2022/11/05 07:03:37;;;;;;;43.28;22.58;;;6.20;99.90;;;-144.05;82.16;125687.94;4977280;28;20033;-82
2022/11/05 07:06:06;;;;;;;35.13;21.70;;;6.30;99.90;;;-144.05;82.23;125687.94;4993552;28;20030;-80
2022/11/05 07:08:36;;;;;;;40.45;21.70;;;6.40;99.90;;;-144.05;81.96;125687.94;4976936;28;20460;-81
2022/11/05 07:11:04;;;;;;;38.33;20.83;;;6.50;99.90;;;-144.05;81.17;125687.94;4977442;28;20030;-81
2022/11/05 07:13:30;;;;;;;37.03;21.45;;;6.60;99.90;;;-144.05;81.65;125687.94;4977215;28;20118;-80
2022/11/05 07:15:57;;;;;;;37.35;20.73;;;6.60;99.90;;;-144.05;80.75;125687.94;4995009;28;20034;-82
2022/11/05 07:18:23;;;;;;;34.63;20.40;;;6.70;99.90;;;-144.05;80.04;125687.94;4994897;28;20394;-82
2022/11/05 07:20:49;;;;;;;33.85;19.67;;;6.80;99.90;;;-144.05;79.59;125687.94;4998710;28;20397;-82
2022/11/05 07:23:16;;;;;;;29.58;19.92;;;6.90;99.90;;;-144.05;78.93;125687.94;4976786;28;20110;-82
2022/11/05 07:25:42;;;;;;;37.97;19.98;;;6.90;99.90;;;-144.05;79.13;125687.94;4976622;28;20034;-81
2022/11/05 07:28:09;;;;;;;32.40;19.67;;;7.00;99.90;;;-144.05;78.18;125687.94;4994422;28;20408;-82
2022/11/05 07:30:36;;;;;;;34.20;20.40;;;7.20;99.90;;;-144.05;78.00;125687.94;4977985;28;20045;-81
2022/11/05 07:33:03;;;;;;;32.53;19.02;;;7.30;99.90;;;-144.05;77.05;125687.94;4976947;28;20031;-79
2022/11/05 07:35:30;;;;;;;33.85;21.50;;;7.40;99.90;;;-144.05;76.74;125687.94;4994150;28;20034;-81
2022/11/05 07:37:56;;;;;;;29.88;19.38;;;7.50;99.90;;;-144.05;75.94;125687.94;4978989;28;20481;-82
2022/11/05 07:40:27;;;;;;;33.47;20.55;;;7.60;99.90;;;-144.05;76.46;125687.94;4976780;28;20033;-82
2022/11/05 07:43:00;;;;;;;35.38;21.25;;;7.70;99.90;;;-144.05;76.32;125687.94;4976527;28;20477;-81
2022/11/05 07:45:29;;;;;;;35.97;21.73;;;7.60;99.90;;;-144.05;76.30;125687.94;4976878;28;20185;-81
2022/11/05 07:48:02;;;;;;;33.45;21.17;;;7.80;99.90;;;-144.05;75.98;125687.94;4976760;28;20033;-83
2022/11/05 07:50:34;;;;;;;34.28;21.30;;;7.80;99.90;;;-144.05;76.18;125687.94;4995487;28;20112;-82
2022/11/05 07:53:09;;;;;;;33.10;20.65;;;8.00;99.90;;;-144.05;75.78;125687.94;4976870;28;20053;-81
2022/11/05 07:55:35;;;;;;;35.47;20.45;;;8.10;99.90;;;-144.05;76.06;125687.94;4994380;28;20026;-78
2022/11/05 07:58:02;;;;;;;34.75;20.27;;;8.20;99.90;;;-144.05;75.40;125687.94;4992790;28;20034;-81
2022/11/05 08:00:29;;;;;;;36.03;20.27;;;8.20;99.90;;;-144.05;74.45;125687.94;4977066;28;20062;-81
2022/11/05 08:03:12;;;;;;;34.17;19.45;;;8.30;99.90;;;-144.05;73.83;125687.94;4995647;28;20576;-81
2022/11/05 08:05:43;;;;;;;34.72;20.52;;;8.50;99.90;;;-144.05;73.50;125687.94;4979472;28;20623;-79
2022/11/05 08:08:13;;;;;;;32.67;19.48;;;8.70;99.90;;;-144.05;73.81;125687.94;4995681;28;20152;-82
2022/11/05 08:10:40;;;;;;;29.45;18.52;;;8.70;99.90;;;-144.05;72.95;125687.94;4994712;28;20037;-80
2022/11/05 08:13:08;;;;;;;31.20;18.15;;;8.90;99.90;;;-144.05;73.67;125687.94;4994761;28;20034;-80
2022/11/05 08:15:39;;;;;;;32.22;19.58;;;9.00;99.90;;;-144.05;73.15;125687.94;4997081;28;20062;-81
2022/11/05 08:18:11;;;;;;;33.83;18.25;;;9.10;99.90;;;-144.05;72.76;125687.94;4979429;28;20038;-82
2022/11/05 08:20:38;;;;;;;30.50;19.88;;;9.10;99.90;;;-144.05;72.58;125687.94;4978387;28;20133;-81
2022/11/05 08:23:04;;;;;;;33.60;18.73;;;9.20;99.90;;;-144.05;72.61;125687.94;4996632;28;20109;-84
2022/11/05 08:25:30;;;;;;;30.77;17.30;;;9.30;99.90;;;-144.05;71.56;125687.94;4984765;28;20022;-82
2022/11/05 08:28:00;;;;;;;34.65;18.90;;;9.30;99.90;;;-144.05;71.96;125687.94;4983589;28;20093;-78
2022/11/05 08:30:27;;;;;;;29.25;18.60;;;9.50;99.90;;;-144.05;71.42;125687.94;4980184;28;20132;-83
2022/11/05 08:33:06;;;;;;;28.05;18.52;;;9.50;99.90;;;-144.05;71.99;125687.94;4983578;28;20027;-84
2022/11/05 08:35:38;;;;;;;29.02;16.75;;;9.50;99.90;;;-144.05;70.13;125687.94;4984439;28;20029;-81
2022/11/05 08:38:07;;;;;;;30.75;17.83;;;9.70;99.90;;;-144.05;69.69;125687.94;4993820;28;20482;-80
2022/11/05 08:40:36;;;;;;;25.50;16.40;;;9.80;99.90;;;-144.05;68.94;125687.94;4977587;28;20513;-82
2022/11/05 08:43:06;;;;;;;28.23;16.17;;;9.90;99.90;;;-144.05;70.27;125687.94;4977918;28;20121;-79
2022/11/05 08:45:33;;;;;;;23.42;15.48;;;9.80;99.90;;;-144.05;69.85;125687.94;4994529;28;20062;-80
2022/11/05 08:48:14;;;;;;;23.45;15.93;;;9.90;99.90;;;-144.05;68.86;125687.94;4979946;28;20475;-82
2022/11/05 08:50:42;;;;;;;28.70;16.13;;;10.00;99.90;;;-144.05;69.43;125687.94;4982576;28;20030;-81
2022/11/05 08:53:10;;;;;;;24.77;15.20;;;10.10;99.90;;;-144.05;70.04;125687.94;4982284;28;20097;-80
2022/11/05 08:55:37;;;;;;;23.33;14.60;;;10.10;99.90;;;-144.05;68.97;125687.94;4999342;28;20097;-80
2022/11/05 08:58:13;;;;;;;23.08;14.30;;;10.20;99.90;;;-144.05;67.50;125687.94;5000573;28;20073;-81
2022/11/05 09:00:40;;;;;;;21.73;14.65;;;10.30;99.90;;;-144.05;68.15;125687.94;4986415;28;20011;-82
2022/11/05 09:03:08;;;;;;;22.30;14.30;;;10.30;99.90;;;-144.05;68.72;125687.94;5004068;28;20034;-83
2022/11/05 09:05:37;;;;;;;23.58;13.70;;;10.30;99.90;;;-144.05;67.91;125687.94;5001455;28;20026;-80
2022/11/05 09:08:16;;;;;;;22.05;13.40;;;10.40;99.90;;;-144.05;67.68;125687.94;5004964;28;20026;-80
2022/11/05 09:10:45;;;;;;;21.75;13.23;;;10.60;99.90;;;-144.05;66.75;125687.94;5005116;28;20019;-84
2022/11/05 09:13:12;;;;;;;23.65;13.10;;;10.90;99.90;;;-144.05;65.62;125687.94;5006655;23;20026;-76
2022/11/05 09:15:39;;;;;;;22.67;13.32;;;11.00;99.90;;;-144.05;65.09;125687.94;5012337;28;20034;-76
2022/11/05 09:18:05;;;;;;;21.77;12.07;;;11.20;99.90;;;-144.05;63.53;125687.94;5013076;28;20037;-75
2022/11/05 09:20:35;;;;;;;20.50;12.50;;;11.40;99.90;;;-144.05;63.67;125687.94;5013220;28;20061;-76
2022/11/05 09:23:01;;;;;;;17.98;12.13;;;11.30;99.90;;;-144.05;64.20;125687.94;5011573;28;20049;-75
2022/11/05 09:25:27;;;;;;;27.83;12.98;;;11.30;99.90;;;-144.05;63.70;125687.94;5012666;28;20034;-77
2022/11/05 09:27:53;;;;;;;25.48;12.60;;;11.50;99.90;;;-144.05;62.73;125687.94;5012280;28;20072;-76
2022/11/05 09:30:19;;;;;;;19.38;11.70;;;11.70;99.90;;;-144.05;62.78;125687.94;5012888;28;20053;-77
2022/11/05 09:32:45;;;;;;;16.58;11.02;;;11.70;99.90;;;-144.05;61.55;125687.94;5012446;28;20044;-76
2022/11/05 09:35:11;;;;;;;21.40;10.60;;;11.80;99.90;;;-144.05;62.64;125687.94;5011880;28;20030;-76
2022/11/05 09:37:37;;;;;;;19.17;10.57;;;11.90;99.90;;;-144.05;61.91;125687.94;5012663;28;20026;-75
2022/11/05 09:40:04;;;;;;;16.10;9.18;;;11.90;99.90;;;-144.05;61.24;125687.94;5012493;28;20030;-77
2022/11/05 09:42:51;;;;;;;22.00;10.82;;;11.90;99.90;;;-144.05;62.17;125687.94;5012722;28;20486;-77
2022/11/05 09:45:25;;;;;;;17.55;8.60;;;11.90;99.90;;;-144.05;61.25;125687.94;5013290;28;20037;-76
2022/11/05 09:48:02;;;;;;;14.40;8.45;;;12.00;99.90;;;-144.05;59.74;125687.94;5012651;28;20076;-76
2022/11/05 09:50:38;;;;;;;14.32;8.43;;;12.10;99.90;;;-144.05;60.00;125687.94;5014807;28;20022;-76
2022/11/05 09:53:04;;;;;;;14.70;8.65;;;12.30;99.90;;;-144.05;60.60;125687.94;5014279;28;20034;-77
2022/11/05 09:55:42;;;;;;;20.80;9.10;;;12.50;99.90;;;-144.05;59.97;125687.94;5015381;28;20034;-77
2022/11/05 09:58:33;;;;;;;15.07;7.85;;;12.50;99.90;;;-144.05;59.61;125687.94;5015058;28;20030;-79
2022/11/05 10:01:03;;;;;;;13.77;8.40;;;12.60;99.90;;;-144.05;59.33;125687.94;5014445;28;20026;-77
2022/11/05 10:03:32;;;;;;;11.35;7.00;;;12.80;99.90;;;-144.05;58.70;125687.94;5014762;28;20037;-77
2022/11/05 10:06:10;;;;;;;14.88;7.95;;;12.90;99.90;;;-144.05;57.89;125687.94;4998192;28;20084;-77
2022/11/05 10:08:50;;;;;;;15.13;7.90;;;13.00;99.90;;;-144.05;56.93;125687.94;5015883;28;20057;-77
2022/11/05 10:11:38;;;;;;;13.90;7.60;;;13.00;99.90;;;-144.05;57.75;125687.94;5015777;28;20029;-78
2022/11/05 10:14:27;;;;;;;16.60;7.45;;;12.90;99.90;;;-144.05;57.43;125687.94;5014142;28;20030;-77
2022/11/05 10:17:29;;;;;;;15.20;7.28;;;12.90;99.90;;;-144.05;57.63;125687.94;4997422;28;20054;-77
2022/11/05 10:20:32;;;;;;;13.20;7.13;;;13.10;99.90;;;-144.05;56.23;125687.94;4976516;28;20053;-77
2022/11/05 10:23:13;;;;;;;9.82;6.68;;;13.20;99.90;;;-144.05;56.21;125687.94;5004826;28;20042;-76
2022/11/05 10:25:57;;;;;;;16.73;7.43;;;13.30;99.90;;;-144.05;56.40;125687.94;5015432;28;20030;-78
2022/11/05 10:28:29;;;;;;;10.25;5.32;;;13.40;99.90;;;-144.05;53.90;125687.94;5014735;28;20038;-77
2022/11/05 10:31:14;;;;;;;11.00;5.10;;;13.50;99.90;;;-144.05;53.78;125687.94;5014624;28;20386;-75
2022/11/05 10:33:58;;;;;;;8.18;3.90;;;13.60;99.90;;;-144.05;53.72;125687.94;5015001;28;20057;-79
2022/11/05 10:36:33;;;;;;;7.00;4.47;;;13.40;99.90;;;-144.05;53.12;125687.94;5014518;28;20037;-78
2022/11/05 10:39:17;;;;;;;8.47;4.73;;;13.50;99.90;;;-144.05;52.57;125687.94;5015446;28;20101;-79
2022/11/05 10:42:31;;;;;;;9.55;4.30;;;13.30;99.90;;;-144.05;52.90;125687.94;5014820;28;20277;-77
2022/11/05 10:45:39;;;;;;;11.82;5.30;;;13.10;99.90;;;-144.05;54.80;125687.94;5015983;28;20030;-78
2022/11/05 10:48:51;;;;;;;11.38;4.85;;;12.40;99.90;;;-144.05;56.75;125687.94;4996047;28;20044;-76
2022/11/05 10:51:18;;;;;;;12.75;5.00;;;11.80;99.90;;;-144.05;57.56;125687.94;5015905;28;20053;-77
2022/11/05 10:54:10;;;;;;;9.65;5.82;;;11.40;99.90;;;-144.05;58.72;125687.94;5016041;28;20068;-77
2022/11/05 10:56:40;;;;;;;8.30;5.20;;;11.30;99.90;;;-144.05;58.10;125687.94;5016323;28;20126;-76
2022/11/05 10:59:26;;;;;;;9.98;5.20;;;11.60;99.90;;;-144.05;57.03;125687.94;5014871;28;20205;-74
2022/11/05 11:02:25;;;;;;;10.20;5.57;;;12.10;99.90;;;-144.05;55.91;125687.94;4999106;28;20033;-74